International Virtual Aviation Organisation

Russian Federation and Kazakhstan MCD

 

Карточка аэропорта ULMM

Внимание!
Информация на этой странице в стадии наполнения.
Если вы не увидели какой-то информации, или заметили неточность - пожалуйста сообщите нам!
Спасибо!
Команда RU-STAFF
Название аэропортаМурманск
Название аэропорта (англ.)Murmansk
Превышение262 ft. (79.9 m.)
Координаты68°46.902', 32°45.066'
Высота перехода900m
Эшелон переходаQFE>=753mm:FL050; QFE<753=>727:FL060; QFE<727:FL070
Коды ответчика3101-3117
Зона ОрВДМурманск РПИ (ULMM)
Данные METARULMM 091430Z 14002MPS 9999 BKN039 18/13 Q1011 R13/090070 NOSIG RMK QFE752
Проноз погоды (TAF)ULMM 091352Z 0915/1015 16003MPS 9999 SCT020 TEMPO 0915/0918 11003G08MPS 5000 -SHRA BKN020CB FM091800 01003G08MPS 6000 -SHRA BKN011CB TEMPO 0918/1006 03005G10MPS 1600 SHRA SCT005 BKN011CB TEMPO 1006/1012 35003MPS 3300 -SHRA BR
NOTAMshow/hide NOTAM
AWOS   TABLE

Информация о ВПП

ВПП Длина ВПП (м.) Покрытие Курс ВПП Частота ILS
132500Асфальтобетон131110.3
312500Асфальтобетон311108.5

Диспетчерские позиции




Спутниковое изображение